createdAt,value
2022-08-30T00:00:39.984Z,90.06
2022-08-30T00:03:16.325Z,89.82
2022-08-30T00:05:52.080Z,89.86
2022-08-30T00:08:31.962Z,89.68
2022-08-30T00:10:58.592Z,90.01
2022-08-30T00:13:25.029Z,90.04
2022-08-30T00:15:58.022Z,90.67
2022-08-30T00:18:24.603Z,90.52
2022-08-30T00:20:57.949Z,90.67
2022-08-30T00:23:24.421Z,90.58
2022-08-30T00:25:57.954Z,90.56
2022-08-30T00:28:24.391Z,90.68
2022-08-30T00:30:51.596Z,90.68
2022-08-30T00:33:24.971Z,90.75
2022-08-30T00:35:51.394Z,90.85
2022-08-30T00:38:25.958Z,90.92
2022-08-30T00:40:52.918Z,91.06
2022-08-30T00:43:33.959Z,91.13
2022-08-30T00:46:04.665Z,91.01
2022-08-30T00:48:33.347Z,91.35
2022-08-30T00:51:09.937Z,91.36
2022-08-30T00:53:42.065Z,91.32
2022-08-30T00:56:16.917Z,91.39
2022-08-30T00:58:55.953Z,91.39
2022-08-30T01:01:23.347Z,91.44
2022-08-30T01:03:57.930Z,91.72
2022-08-30T01:06:26.059Z,91.56
2022-08-30T01:09:07.922Z,91.54
2022-08-30T01:11:37.368Z,91.69
2022-08-30T01:14:06.373Z,91.76
2022-08-30T01:16:40.951Z,91.70
2022-08-30T01:19:21.435Z,91.93
2022-08-30T01:22:03.918Z,91.92
2022-08-30T01:24:31.425Z,92.11
2022-08-30T01:26:58.193Z,92.22
2022-08-30T01:29:31.920Z,92.42
2022-08-30T01:31:58.300Z,92.16
2022-08-30T01:34:31.942Z,92.44
2022-08-30T01:36:58.317Z,92.37
2022-08-30T01:39:31.929Z,92.46
2022-08-30T01:41:58.551Z,92.78
2022-08-30T01:44:31.933Z,92.80
2022-08-30T01:46:58.622Z,92.89
2022-08-30T01:49:27.565Z,92.85
2022-08-30T01:52:01.934Z,92.76
2022-08-30T01:54:37.018Z,92.78
2022-08-30T01:57:13.943Z,92.88
2022-08-30T01:59:49.910Z,93.07
2022-08-30T02:02:26.893Z,93.08
2022-08-30T02:04:54.383Z,93.05
2022-08-30T02:07:33.889Z,93.23
2022-08-30T02:10:00.437Z,93.28
2022-08-30T02:12:33.928Z,93.28
2022-08-30T02:15:07.974Z,93.14
2022-08-30T02:17:41.942Z,93.08
2022-08-30T02:20:09.543Z,93.36
2022-08-30T02:22:36.052Z,93.52
2022-08-30T02:25:11.222Z,93.31
2022-08-30T02:27:47.503Z,93.41
2022-08-30T02:30:21.038Z,93.19
2022-08-30T02:32:47.490Z,93.22
2022-08-30T02:35:20.889Z,93.25
2022-08-30T02:37:47.281Z,93.51
2022-08-30T02:40:19.969Z,93.25
2022-08-30T02:42:49.503Z,93.26
2022-08-30T02:45:16.284Z,93.26
2022-08-30T02:47:51.902Z,93.04
2022-08-30T02:50:18.584Z,93.25
2022-08-30T02:52:51.907Z,93.39
2022-08-30T02:55:20.877Z,93.65
2022-08-30T02:57:53.978Z,93.74
2022-08-30T03:00:21.261Z,93.78
2022-08-30T03:02:47.832Z,93.79
2022-08-30T03:05:21.911Z,93.88
2022-08-30T03:07:48.483Z,93.99
2022-08-30T03:10:16.333Z,94.14
2022-08-30T03:12:49.942Z,94.45
2022-08-30T03:15:27.111Z,94.10
2022-08-30T03:18:01.936Z,94.14
2022-08-30T03:20:29.042Z,94.14
2022-08-30T03:23:01.911Z,94.01
2022-08-30T03:25:35.897Z,94.09
2022-08-30T03:28:02.510Z,93.81
2022-08-30T03:30:35.928Z,93.75
2022-08-30T03:33:09.891Z,93.60
2022-08-30T03:35:37.868Z,93.31
2022-08-30T03:38:04.355Z,93.33
2022-08-30T03:40:37.986Z,93.39
2022-08-30T03:43:04.895Z,94.12
2022-08-30T03:45:38.949Z,94.46
2022-08-30T03:48:05.674Z,94.62
2022-08-30T03:50:39.884Z,94.89
2022-08-30T03:53:06.478Z,94.87
2022-08-30T03:55:39.929Z,95.04
2022-08-30T03:58:06.362Z,95.02
2022-08-30T04:00:39.935Z,95.14
2022-08-30T04:03:06.498Z,95.04
2022-08-30T04:05:32.885Z,94.72
2022-08-30T04:08:05.896Z,94.76
2022-08-30T04:10:38.899Z,94.35
2022-08-30T04:13:11.864Z,94.02
2022-08-30T04:15:38.254Z,93.68
2022-08-30T04:18:10.897Z,93.66
2022-08-30T04:20:37.939Z,93.96
2022-08-30T04:23:13.891Z,94.09
2022-08-30T04:25:47.878Z,94.48
2022-08-30T04:28:21.892Z,94.64
2022-08-30T04:30:48.697Z,94.93
2022-08-30T04:33:16.789Z,95.05
2022-08-30T04:35:52.887Z,95.43
2022-08-30T04:38:22.611Z,95.60
2022-08-30T04:40:56.903Z,95.12
2022-08-30T04:43:31.890Z,95.37
2022-08-30T04:45:58.350Z,95.55
2022-08-30T04:48:31.900Z,95.08
2022-08-30T04:51:04.896Z,95.68
2022-08-30T04:53:37.914Z,95.73
2022-08-30T04:56:18.876Z,95.73
2022-08-30T04:58:53.868Z,95.87
2022-08-30T05:01:23.884Z,95.90
2022-08-30T05:03:58.872Z,95.68
2022-08-30T05:06:41.879Z,95.25
2022-08-30T05:09:08.280Z,94.33
2022-08-30T05:11:40.868Z,92.31
2022-08-30T05:14:13.874Z,90.03
2022-08-30T05:16:41.655Z,87.78
2022-08-30T05:19:14.902Z,85.39
2022-08-30T05:21:41.451Z,83.60
2022-08-30T05:24:14.895Z,82.58
2022-08-30T05:26:41.356Z,81.54
2022-08-30T05:29:14.003Z,80.11
2022-08-30T05:31:40.687Z,78.64
2022-08-30T05:34:07.207Z,77.06
2022-08-30T05:36:41.928Z,76.42
2022-08-30T05:39:10.428Z,75.77
2022-08-30T05:41:38.476Z,75.17
2022-08-30T05:44:13.851Z,74.28
2022-08-30T05:46:45.558Z,73.72
2022-08-30T05:49:19.858Z,72.19
2022-08-30T05:51:46.268Z,71.01
2022-08-30T05:54:20.870Z,69.53
2022-08-30T05:56:53.980Z,68.20
2022-08-30T05:59:27.870Z,66.72
2022-08-30T06:01:58.060Z,65.02
2022-08-30T06:04:24.622Z,64.24
2022-08-30T06:06:57.883Z,64.56
2022-08-30T06:09:24.275Z,65.27
2022-08-30T06:11:57.867Z,64.17
2022-08-30T06:14:31.850Z,63.84
2022-08-30T06:17:04.884Z,64.02
2022-08-30T06:19:31.271Z,63.96
2022-08-30T06:21:57.819Z,63.76
2022-08-30T06:24:54.003Z,63.52
2022-08-30T06:27:24.861Z,64.65
2022-08-30T06:29:59.881Z,64.68
2022-08-30T06:32:33.850Z,63.40
2022-08-30T06:35:08.865Z,63.00
2022-08-30T06:37:35.338Z,62.84
2022-08-30T06:40:03.315Z,61.89
2022-08-30T06:42:39.863Z,61.67
2022-08-30T06:45:10.423Z,61.12
2022-08-30T06:47:38.254Z,61.00
2022-08-30T06:50:12.190Z,60.01
2022-08-30T06:52:43.282Z,59.58
2022-08-30T06:55:19.851Z,59.04
2022-08-30T06:57:53.924Z,60.59
2022-08-30T07:00:27.851Z,59.24
2022-08-30T07:03:02.139Z,58.33
2022-08-30T07:05:28.633Z,57.67
2022-08-30T07:08:01.851Z,56.77
2022-08-30T07:10:34.867Z,56.79
2022-08-30T07:13:01.444Z,57.73
2022-08-30T07:15:27.846Z,55.92
2022-08-30T07:18:21.884Z,55.60
2022-08-30T07:20:48.309Z,55.67
2022-08-30T07:23:20.871Z,55.37
2022-08-30T07:25:47.453Z,54.55
2022-08-30T07:28:21.854Z,55.09
2022-08-30T07:30:48.473Z,54.66
2022-08-30T07:33:21.858Z,55.52
2022-08-30T07:35:48.227Z,55.08
2022-08-30T07:38:14.975Z,55.08
2022-08-30T07:40:47.910Z,53.82
2022-08-30T07:43:14.346Z,53.02
2022-08-30T07:45:47.852Z,53.55
2022-08-30T07:48:14.257Z,51.30
2022-08-30T07:50:57.054Z,51.63
2022-08-30T07:53:25.134Z,52.15
2022-08-30T07:55:57.874Z,52.42
2022-08-30T07:58:39.842Z,51.98
2022-08-30T08:01:16.003Z,52.32
2022-08-30T08:03:43.343Z,52.57
2022-08-30T08:06:12.223Z,54.34
2022-08-30T08:08:46.987Z,55.56
2022-08-30T08:11:17.083Z,55.08
2022-08-30T08:13:53.535Z,57.34
2022-08-30T08:16:29.868Z,56.89
2022-08-30T08:18:57.223Z,55.97
2022-08-30T08:21:24.819Z,56.79
2022-08-30T08:24:05.863Z,56.20
2022-08-30T08:26:45.320Z,53.98
2022-08-30T08:29:12.101Z,53.70
2022-08-30T08:31:38.669Z,54.19
2022-08-30T08:34:11.870Z,53.96
2022-08-30T08:36:38.340Z,54.47
2022-08-30T08:39:13.843Z,52.04
2022-08-30T08:42:04.753Z,52.90
2022-08-30T08:44:59.842Z,52.50
2022-08-30T08:47:43.863Z,51.76
2022-08-30T08:50:23.849Z,51.98
2022-08-30T08:53:36.177Z,52.67
2022-08-30T08:56:19.848Z,49.98
2022-08-30T08:58:56.520Z,49.23
2022-08-30T09:01:33.927Z,49.39
2022-08-30T09:04:08.038Z,48.83
2022-08-30T09:06:51.846Z,50.03
2022-08-30T09:09:27.533Z,49.72
2022-08-30T09:12:01.866Z,48.56
2022-08-30T09:14:34.705Z,48.13
2022-08-30T09:17:11.838Z,48.80
2022-08-30T09:19:40.351Z,51.33
2022-08-30T09:22:18.846Z,50.61
2022-08-30T09:24:48.572Z,49.51
2022-08-30T09:27:32.869Z,49.87
2022-08-30T09:30:14.756Z,50.75
2022-08-30T09:32:52.543Z,49.86
2022-08-30T09:35:30.852Z,50.18
2022-08-30T09:38:05.534Z,47.46
2022-08-30T09:40:45.960Z,48.65
2022-08-30T09:46:19.920Z,49.42
2022-08-30T09:48:47.329Z,46.81
2022-08-30T09:51:49.831Z,48.26
2022-08-30T09:54:24.643Z,47.17
2022-08-30T09:57:34.399Z,45.81
2022-08-30T10:00:13.472Z,46.47
2022-08-30T10:03:35.342Z,46.93
2022-08-30T10:06:27.919Z,46.53
2022-08-30T10:09:03.838Z,48.31
2022-08-30T10:11:50.869Z,49.03
2022-08-30T10:14:26.200Z,46.80
2022-08-30T10:17:29.847Z,45.30
2022-08-30T10:20:27.860Z,45.50
2022-08-30T10:23:09.232Z,44.34
2022-08-30T10:25:47.860Z,44.42
2022-08-30T10:28:43.565Z,45.65
2022-08-30T10:31:37.860Z,45.86
2022-08-30T10:34:17.843Z,45.80
2022-08-30T10:37:01.835Z,44.44
2022-08-30T10:39:34.023Z,44.57
2022-08-30T10:42:15.829Z,43.87
2022-08-30T10:44:49.703Z,43.98
2022-08-30T10:47:50.352Z,45.65
2022-08-30T10:50:21.562Z,44.57
2022-08-30T10:53:15.951Z,44.06
2022-08-30T10:55:58.558Z,43.61
2022-08-30T10:58:31.846Z,43.72
2022-08-30T11:01:46.667Z,44.45
2022-08-30T11:05:03.873Z,43.92
2022-08-30T11:07:40.696Z,43.35
2022-08-30T11:10:37.887Z,43.12
2022-08-30T11:13:10.553Z,43.17
2022-08-30T11:16:01.840Z,41.29
2022-08-30T11:18:41.517Z,43.29
2022-08-30T11:21:25.888Z,43.71
2022-08-30T11:24:11.407Z,42.29
2022-08-30T11:26:51.863Z,43.99
2022-08-30T11:29:44.395Z,42.07
2022-08-30T11:32:21.853Z,40.63
2022-08-30T11:34:48.169Z,41.45
2022-08-30T11:37:50.635Z,42.60
2022-08-30T11:40:19.901Z,41.33
2022-08-30T11:42:59.844Z,40.02
2022-08-30T11:45:28.485Z,41.57
2022-08-30T11:48:07.837Z,41.27
2022-08-30T11:51:05.116Z,41.94
2022-08-30T11:53:56.977Z,40.99
2022-08-30T11:56:39.863Z,40.06
2022-08-30T11:59:10.466Z,39.50
2022-08-30T12:01:51.997Z,40.33
2022-08-30T12:04:20.900Z,39.87
2022-08-30T12:07:05.831Z,40.94
2022-08-30T12:09:35.206Z,41.91
2022-08-30T12:16:03.930Z,40.22
2022-08-30T12:18:49.851Z,40.54
2022-08-30T12:21:22.460Z,40.40
2022-08-30T12:24:22.829Z,41.19
2022-08-30T12:26:52.297Z,42.82
2022-08-30T12:29:29.862Z,43.36
2022-08-30T12:32:09.497Z,42.08
2022-08-30T12:34:57.869Z,40.20
2022-08-30T12:37:32.105Z,39.22
2022-08-30T12:40:12.258Z,40.46
2022-08-30T12:42:55.838Z,41.76
2022-08-30T12:45:33.855Z,41.99
2022-08-30T12:48:25.845Z,41.61
2022-08-30T12:50:56.027Z,41.12
2022-08-30T12:53:36.030Z,41.95
2022-08-30T12:56:04.859Z,42.40
2022-08-30T12:58:53.901Z,42.26
2022-08-30T13:01:33.322Z,42.31
2022-08-30T13:04:19.860Z,42.04
2022-08-30T13:07:13.883Z,41.41
2022-08-30T13:09:44.060Z,43.46
2022-08-30T13:12:32.839Z,42.33
2022-08-30T13:15:16.479Z,42.50
2022-08-30T13:17:49.833Z,43.54
2022-08-30T13:20:16.269Z,43.13
2022-08-30T13:23:08.891Z,42.73
2022-08-30T13:25:44.807Z,41.76
2022-08-30T13:28:17.920Z,42.42
2022-08-30T13:30:50.829Z,41.54
2022-08-30T13:33:17.367Z,41.82
2022-08-30T13:35:51.832Z,41.97
2022-08-30T13:38:24.804Z,41.02
2022-08-30T13:40:57.873Z,43.44
2022-08-30T13:43:24.671Z,41.74
2022-08-30T13:45:57.841Z,41.30
2022-08-30T13:48:25.667Z,40.74
2022-08-30T13:50:53.345Z,40.49
2022-08-30T13:56:14.031Z,41.29
2022-08-30T13:58:46.903Z,42.04
2022-08-30T14:01:13.839Z,40.86
2022-08-30T14:09:41.836Z,41.01
2022-08-30T14:12:08.755Z,40.33
2022-08-30T14:14:43.060Z,40.04
2022-08-30T14:17:11.193Z,41.31
2022-08-30T14:19:45.833Z,40.48
2022-08-30T14:22:18.856Z,40.01
2022-08-30T14:24:45.274Z,40.95
2022-08-30T14:27:17.824Z,41.23
2022-08-30T14:29:44.299Z,41.03
2022-08-30T14:32:17.842Z,40.36
2022-08-30T14:34:44.750Z,42.38
2022-08-30T14:37:18.811Z,41.60
2022-08-30T14:39:53.829Z,41.17
2022-08-30T14:42:20.207Z,41.06
2022-08-30T14:44:56.285Z,41.20
2022-08-30T14:47:30.057Z,40.52
2022-08-30T14:50:00.645Z,41.12
2022-08-30T14:52:37.824Z,41.87
2022-08-30T14:55:08.462Z,40.33
2022-08-30T14:57:41.803Z,41.61
2022-08-30T15:00:11.176Z,42.06
2022-08-30T15:02:43.815Z,42.35
2022-08-30T15:05:10.282Z,41.96
2022-08-30T15:07:43.817Z,42.46
2022-08-30T15:10:19.994Z,42.47
2022-08-30T15:12:57.828Z,41.93
2022-08-30T15:15:30.802Z,42.37
2022-08-30T15:18:03.822Z,41.35
2022-08-30T15:20:30.568Z,42.08
2022-08-30T15:23:03.813Z,42.40
2022-08-30T15:25:31.543Z,41.90
2022-08-30T15:28:04.818Z,42.14
2022-08-30T15:30:37.818Z,41.83
2022-08-30T15:33:04.229Z,41.88
2022-08-30T15:35:36.809Z,41.47
2022-08-30T15:38:03.378Z,43.21
2022-08-30T15:40:39.903Z,42.17
2022-08-30T15:43:06.489Z,42.27
2022-08-30T15:45:33.249Z,42.65
2022-08-30T15:48:07.806Z,42.75
2022-08-30T15:50:35.757Z,42.81
2022-08-30T15:53:09.864Z,43.82
2022-08-30T15:55:36.317Z,43.15
2022-08-30T15:58:09.810Z,43.48
2022-08-30T16:00:37.281Z,42.93
2022-08-30T16:03:11.849Z,43.30
2022-08-30T16:05:38.223Z,42.53
2022-08-30T16:08:04.599Z,43.09
2022-08-30T16:10:37.825Z,42.46
2022-08-30T16:13:15.929Z,43.19
2022-08-30T16:15:44.275Z,42.30
2022-08-30T16:18:19.892Z,42.67
2022-08-30T16:20:52.804Z,42.51
2022-08-30T16:23:19.361Z,42.93
2022-08-30T16:25:51.807Z,42.48
2022-08-30T16:28:24.790Z,42.73
2022-08-30T16:30:51.174Z,41.44
2022-08-30T16:33:31.801Z,42.32
2022-08-30T16:35:58.981Z,42.10
2022-08-30T16:38:32.822Z,42.05
2022-08-30T16:41:05.807Z,42.73
2022-08-30T16:43:39.822Z,42.83
2022-08-30T16:46:10.366Z,43.13
2022-08-30T16:48:45.826Z,43.02
2022-08-30T16:51:17.018Z,42.85
2022-08-30T16:53:44.098Z,43.89
2022-08-30T16:56:23.823Z,43.66
2022-08-30T16:59:02.656Z,43.43
2022-08-30T17:01:31.993Z,44.08
2022-08-30T17:04:05.825Z,44.44
2022-08-30T17:06:32.490Z,44.54
2022-08-30T17:09:15.055Z,44.77
2022-08-30T17:11:41.871Z,45.43
2022-08-30T17:14:17.831Z,45.31
2022-08-30T17:16:55.812Z,45.46
2022-08-30T17:22:16.816Z,46.17
2022-08-30T17:24:43.171Z,46.55
2022-08-30T17:27:17.817Z,46.74
2022-08-30T17:29:45.518Z,46.86
2022-08-30T17:32:11.915Z,47.62
2022-08-30T17:34:45.809Z,47.92
2022-08-30T17:37:13.025Z,47.89
2022-08-30T17:39:39.475Z,48.08
2022-08-30T17:42:13.811Z,47.98
2022-08-30T17:44:42.089Z,48.78
2022-08-30T17:47:15.813Z,49.17
2022-08-30T17:49:42.227Z,49.29
2022-08-30T17:52:15.801Z,49.50
2022-08-30T17:54:43.022Z,49.99
2022-08-30T17:57:17.799Z,50.30
2022-08-30T17:59:45.492Z,50.85
2022-08-30T18:02:22.742Z,50.64
2022-08-30T18:04:57.777Z,51.25
2022-08-30T18:07:38.858Z,51.50
2022-08-30T18:10:13.413Z,51.41
2022-08-30T18:12:47.795Z,51.97
2022-08-30T18:15:16.034Z,51.83
2022-08-30T18:17:50.803Z,52.12
2022-08-30T18:20:18.287Z,52.35
2022-08-30T18:22:44.789Z,52.66
2022-08-30T18:25:17.792Z,53.27
2022-08-30T18:30:41.355Z,53.79
2022-08-30T18:33:08.716Z,53.79
2022-08-30T18:35:45.339Z,54.23
2022-08-30T18:38:14.088Z,54.55
2022-08-30T18:40:41.281Z,54.63
2022-08-30T18:43:17.794Z,54.76
2022-08-30T18:45:57.815Z,54.69
2022-08-30T18:48:25.255Z,54.84
2022-08-30T18:50:53.770Z,55.20
2022-08-30T18:53:28.634Z,55.42
2022-08-30T18:56:03.840Z,56.05
2022-08-30T18:58:30.378Z,56.09
2022-08-30T19:01:02.800Z,56.64
2022-08-30T19:03:32.971Z,57.40
2022-08-30T19:06:14.794Z,57.63
2022-08-30T19:08:49.127Z,58.12
2022-08-30T19:11:21.774Z,58.34
2022-08-30T19:13:49.667Z,58.86
2022-08-30T19:16:25.858Z,59.02
2022-08-30T19:18:52.274Z,59.48
2022-08-30T19:21:19.982Z,59.41
2022-08-30T19:23:55.196Z,59.84
2022-08-30T19:26:29.786Z,60.40
2022-08-30T19:29:03.794Z,60.20
2022-08-30T19:31:30.206Z,61.05
2022-08-30T19:33:58.267Z,61.14
2022-08-30T19:36:30.795Z,61.37
2022-08-30T19:39:03.813Z,61.52
2022-08-30T19:41:30.200Z,61.31
2022-08-30T19:43:57.300Z,61.78
2022-08-30T19:46:33.781Z,61.88
2022-08-30T19:49:11.786Z,62.04
2022-08-30T19:51:47.002Z,62.42
2022-08-30T19:54:13.995Z,62.31
2022-08-30T19:56:48.108Z,62.45
2022-08-30T19:59:16.451Z,63.06
2022-08-30T20:01:49.825Z,64.33
2022-08-30T20:04:16.895Z,64.82
2022-08-30T20:06:45.287Z,65.14
2022-08-30T20:09:19.780Z,66.05
2022-08-30T20:11:55.201Z,66.36
2022-08-30T20:14:25.501Z,66.68
2022-08-30T20:16:59.790Z,66.99
2022-08-30T20:19:29.276Z,67.60
2022-08-30T20:22:07.783Z,67.98
2022-08-30T20:24:23.646Z,46.08
2022-08-30T20:24:27.037Z,53.36
2022-08-30T20:27:09.782Z,68.29
2022-08-30T20:29:37.760Z,68.90
2022-08-30T20:32:04.701Z,68.81
2022-08-30T20:34:37.770Z,69.33
2022-08-30T20:37:10.814Z,69.49
2022-08-30T20:39:44.770Z,69.55
2022-08-30T20:42:12.972Z,69.87
2022-08-30T20:44:45.784Z,69.75
2022-08-30T20:47:12.395Z,70.25
2022-08-30T20:49:44.798Z,70.25
2022-08-30T20:52:11.210Z,70.64
2022-08-30T20:54:43.780Z,70.75
2022-08-30T20:57:10.327Z,71.16
2022-08-30T20:59:45.788Z,71.11
2022-08-30T21:02:27.830Z,71.28
2022-08-30T21:05:09.785Z,71.58
2022-08-30T21:07:43.776Z,71.64
2022-08-30T21:10:22.621Z,72.07
2022-08-30T21:12:49.691Z,72.19
2022-08-30T21:15:36.430Z,72.18
2022-08-30T21:18:09.823Z,72.14
2022-08-30T21:20:36.260Z,72.46
2022-08-30T21:23:09.804Z,72.65
2022-08-30T21:25:49.788Z,72.23
2022-08-30T21:28:22.814Z,72.44
2022-08-30T21:30:55.823Z,72.10
2022-08-30T21:33:22.252Z,72.04
2022-08-30T21:36:13.803Z,72.69
2022-08-30T21:38:40.189Z,72.68
2022-08-30T21:41:06.781Z,72.58
2022-08-30T21:43:39.806Z,72.46
2022-08-30T21:46:13.823Z,72.33
2022-08-30T21:48:40.223Z,72.72
2022-08-30T21:51:14.803Z,72.56
2022-08-30T21:53:47.806Z,72.56
2022-08-30T21:56:21.869Z,72.90
2022-08-30T21:58:55.788Z,73.22
2022-08-30T22:01:35.863Z,73.16
2022-08-30T22:04:07.634Z,73.15
2022-08-30T22:06:43.763Z,73.39
2022-08-30T22:09:13.842Z,73.20
2022-08-30T22:11:50.020Z,73.35
2022-08-30T22:14:18.887Z,73.24
2022-08-30T22:16:51.844Z,73.13
2022-08-30T22:19:23.103Z,73.12
2022-08-30T22:22:01.354Z,72.86
2022-08-30T22:24:35.817Z,72.88
2022-08-30T22:27:03.788Z,72.86
2022-08-30T22:29:36.791Z,73.16
2022-08-30T22:32:03.738Z,73.29
2022-08-30T22:34:31.952Z,73.24
2022-08-30T22:37:05.770Z,73.24
2022-08-30T22:39:32.264Z,73.09
2022-08-30T22:42:05.777Z,72.92
2022-08-30T22:44:32.371Z,73.38
2022-08-30T22:47:06.857Z,73.22
2022-08-30T22:49:33.321Z,73.22
2022-08-30T22:52:05.772Z,73.20
2022-08-30T22:54:33.117Z,73.43
2022-08-30T22:57:05.781Z,73.40
2022-08-30T22:59:32.716Z,73.77
2022-08-30T23:01:59.481Z,73.87
2022-08-30T23:04:33.747Z,73.88
2022-08-30T23:09:35.813Z,74.11
2022-08-30T23:12:02.423Z,74.04
2022-08-30T23:14:35.785Z,73.84
2022-08-30T23:17:09.763Z,73.99
2022-08-30T23:19:42.789Z,74.17
2022-08-30T23:22:09.269Z,74.48
2022-08-30T23:25:00.792Z,74.68
2022-08-30T23:27:51.776Z,74.74
2022-08-30T23:30:43.776Z,74.43
2022-08-30T23:33:29.089Z,74.90
2022-08-30T23:36:21.787Z,75.07
2022-08-30T23:39:06.654Z,74.79
2022-08-30T23:41:57.746Z,74.86
2022-08-30T23:44:42.772Z,75.07
2022-08-30T23:47:33.860Z,75.00
2022-08-30T23:50:25.774Z,75.40
2022-08-30T23:53:10.595Z,75.42
2022-08-30T23:56:04.750Z,75.21
2022-08-30T23:58:49.595Z,75.25
